createdAt,value
2023-04-24T00:01:15.393Z,6.57
2023-04-24T00:06:38.444Z,6.47
2023-04-24T00:12:00.358Z,6.47
2023-04-24T00:17:22.219Z,6.22
2023-04-24T00:22:44.048Z,6.47
2023-04-24T00:28:05.848Z,6.75
2023-04-24T00:33:27.680Z,6.30
2023-04-24T00:38:49.512Z,6.72
2023-04-24T00:44:11.477Z,7.00
2023-04-24T00:49:33.296Z,6.82
2023-04-24T00:54:55.104Z,6.80
2023-04-24T01:00:18.116Z,6.60
2023-04-24T01:05:40.041Z,7.40
2023-04-24T01:11:04.682Z,7.22
2023-04-24T01:16:26.706Z,7.45
2023-04-24T01:21:51.726Z,7.45
2023-04-24T01:27:14.238Z,7.22
2023-04-24T01:32:37.900Z,7.45
2023-04-24T01:37:59.854Z,7.07
2023-04-24T01:43:22.596Z,7.93
2023-04-24T01:48:46.523Z,7.60
2023-04-24T01:54:08.340Z,7.13
2023-04-24T01:59:30.962Z,7.88
2023-04-24T02:04:52.762Z,8.32
2023-04-24T02:10:14.573Z,7.95
2023-04-24T02:15:36.390Z,8.27
2023-04-24T02:20:58.228Z,7.97
2023-04-24T02:26:20.138Z,7.65
2023-04-24T02:31:41.991Z,8.05
2023-04-24T02:37:03.903Z,8.20
2023-04-24T02:42:25.749Z,7.80
2023-04-24T02:47:47.567Z,7.20
2023-04-24T02:53:09.432Z,8.02
2023-04-24T02:58:31.223Z,8.40
2023-04-24T03:03:53.230Z,8.30
2023-04-24T03:09:15.100Z,8.43
2023-04-24T03:14:36.915Z,8.88
2023-04-24T03:19:58.705Z,8.57
2023-04-24T03:25:20.556Z,8.77
2023-04-24T03:30:42.396Z,8.07
2023-04-24T03:36:04.460Z,8.00
2023-04-24T03:41:26.250Z,8.13
2023-04-24T03:46:48.018Z,8.48
2023-04-24T03:52:09.829Z,8.63
2023-04-24T03:57:31.650Z,8.82
2023-04-24T04:02:53.711Z,9.05
2023-04-24T04:08:15.916Z,8.13
2023-04-24T04:13:37.811Z,8.88
2023-04-24T04:18:59.657Z,8.85
2023-04-24T04:24:21.528Z,8.68
2023-04-24T04:29:43.473Z,8.32
2023-04-24T04:35:05.790Z,8.70
2023-04-24T04:40:27.608Z,8.40
2023-04-24T04:45:49.540Z,8.73
2023-04-24T04:51:11.344Z,8.70
2023-04-24T04:56:33.175Z,8.77
2023-04-24T05:01:54.944Z,8.32
2023-04-24T05:07:16.839Z,7.47
2023-04-24T05:12:38.632Z,7.45
2023-04-24T05:18:00.719Z,7.70
2023-04-24T05:23:22.594Z,7.53
2023-04-24T05:28:44.406Z,8.18
2023-04-24T05:34:06.817Z,7.65
2023-04-24T05:39:28.629Z,7.22
2023-04-24T05:44:52.063Z,7.40
2023-04-24T05:50:15.208Z,7.23
2023-04-24T05:55:37.690Z,7.10
2023-04-24T06:00:59.632Z,7.45
2023-04-24T06:06:21.460Z,8.02
2023-04-24T06:11:43.246Z,7.78
2023-04-24T06:17:05.061Z,6.82
2023-04-24T06:22:26.875Z,6.93
2023-04-24T06:27:48.727Z,6.40
2023-04-24T06:33:20.388Z,6.85
2023-04-24T06:38:43.695Z,6.50
2023-04-24T06:44:05.468Z,6.50
2023-04-24T06:49:27.287Z,6.68
2023-04-24T06:54:49.278Z,6.55
2023-04-24T07:00:11.756Z,6.40
2023-04-24T07:05:33.610Z,6.55
2023-04-24T07:10:55.415Z,6.40
2023-04-24T07:16:17.396Z,6.32
2023-04-24T07:21:39.310Z,6.13
2023-04-24T07:27:01.430Z,5.75
2023-04-24T07:32:23.232Z,6.40
2023-04-24T07:37:45.083Z,6.78
2023-04-24T07:43:06.995Z,5.90
2023-04-24T07:48:28.882Z,6.15
2023-04-24T07:53:50.701Z,5.20
2023-04-24T07:59:12.590Z,5.43
2023-04-24T08:04:34.858Z,5.38
2023-04-24T08:09:56.798Z,4.72
2023-04-24T08:15:18.866Z,5.25
2023-04-24T08:20:40.692Z,4.93
2023-04-24T08:26:02.634Z,5.68
2023-04-24T08:31:24.814Z,5.50
2023-04-24T08:36:47.687Z,5.03
2023-04-24T08:42:12.217Z,5.40
2023-04-24T08:47:34.589Z,6.13
2023-04-24T08:52:56.449Z,5.20
2023-04-24T08:58:18.565Z,5.63
2023-04-24T09:03:41.194Z,5.50
2023-04-24T09:09:03.785Z,5.97
2023-04-24T09:14:26.858Z,5.18
2023-04-24T09:19:48.674Z,5.15
2023-04-24T09:25:10.962Z,6.20
2023-04-24T09:30:32.993Z,6.18
2023-04-24T09:35:54.799Z,5.97
2023-04-24T09:41:16.631Z,5.63
2023-04-24T09:46:38.785Z,5.72
2023-04-24T09:52:09.252Z,5.93
2023-04-24T09:57:32.406Z,4.50
2023-04-24T10:02:58.172Z,4.03
2023-04-24T10:08:20.273Z,3.65
2023-04-24T10:13:42.350Z,4.40
2023-04-24T10:19:04.620Z,3.50
2023-04-24T10:24:26.450Z,6.15
2023-04-24T10:29:49.330Z,5.80
2023-04-24T10:35:14.346Z,5.68
2023-04-24T10:40:37.226Z,5.80
2023-04-24T10:46:04.093Z,5.38
2023-04-24T10:51:45.442Z,4.53
2023-04-24T10:57:19.309Z,4.38
2023-04-24T11:02:41.673Z,5.30
2023-04-24T11:08:15.357Z,4.60
2023-04-24T11:13:55.470Z,5.35
2023-04-24T11:19:17.229Z,4.68
2023-04-24T11:24:48.063Z,3.78
2023-04-24T11:30:11.519Z,3.72
2023-04-24T11:35:42.750Z,5.13
2023-04-24T11:41:04.630Z,4.00
2023-04-24T11:46:30.644Z,4.75
2023-04-24T11:51:58.053Z,4.40
2023-04-24T11:57:23.208Z,4.60
2023-04-24T12:02:45.474Z,4.65
2023-04-24T12:08:07.865Z,4.45
2023-04-24T12:13:29.954Z,5.60
2023-04-24T12:18:52.440Z,4.38
2023-04-24T12:24:14.468Z,3.60
2023-04-24T12:29:36.317Z,4.10
2023-04-24T12:34:59.161Z,4.07
2023-04-24T12:40:22.812Z,3.38
2023-04-24T12:45:44.932Z,4.75
2023-04-24T12:51:06.752Z,5.22
2023-04-24T12:56:28.828Z,4.70
2023-04-24T13:01:51.537Z,4.45
2023-04-24T13:07:14.248Z,4.13
2023-04-24T13:12:36.403Z,3.92
2023-04-24T13:17:58.381Z,4.35
2023-04-24T13:23:20.299Z,5.13
2023-04-24T13:28:42.112Z,2.85
2023-04-24T13:34:04.787Z,3.58
2023-04-24T13:39:27.505Z,3.80
2023-04-24T13:44:49.422Z,3.20
2023-04-24T13:50:11.585Z,2.92
2023-04-24T13:55:33.519Z,2.92
2023-04-24T14:00:56.002Z,2.95
2023-04-24T14:06:18.914Z,2.80
2023-04-24T14:11:41.073Z,6.50
2023-04-24T14:17:02.956Z,2.45
2023-04-24T14:22:24.800Z,2.70
2023-04-24T14:27:46.667Z,2.50
2023-04-24T14:33:08.536Z,2.60
2023-04-24T14:38:30.366Z,2.78
2023-04-24T14:43:52.210Z,3.30
2023-04-24T14:49:14.042Z,3.00
2023-04-24T14:54:35.879Z,2.90
2023-04-24T14:59:57.941Z,3.38
2023-04-24T15:05:20.235Z,3.15
2023-04-24T15:10:42.303Z,3.40
2023-04-24T15:16:04.291Z,2.85
2023-04-24T15:21:26.276Z,2.90
2023-04-24T15:26:48.158Z,4.07
2023-04-24T15:32:10.548Z,3.55
2023-04-24T15:37:32.682Z,3.40
2023-04-24T15:42:54.543Z,3.63
2023-04-24T15:48:16.469Z,3.72
2023-04-24T15:53:38.320Z,3.50
2023-04-24T15:59:00.160Z,3.15
2023-04-24T16:04:22.245Z,3.58
2023-04-24T16:09:44.841Z,3.58
2023-04-24T16:15:07.167Z,3.38
2023-04-24T16:20:28.989Z,3.50
2023-04-24T16:25:50.968Z,3.78
2023-04-24T16:31:12.849Z,3.58
2023-04-24T16:36:35.977Z,3.22
2023-04-24T16:41:59.790Z,4.13
2023-04-24T16:47:22.202Z,3.30
2023-04-24T16:52:44.180Z,3.15
2023-04-24T16:58:05.999Z,3.35
2023-04-24T17:03:28.028Z,3.60
2023-04-24T17:08:50.160Z,3.70
2023-04-24T17:14:12.312Z,3.47
2023-04-24T17:19:34.462Z,3.85
2023-04-24T17:24:56.299Z,3.78
2023-04-24T17:30:18.259Z,8.52
2023-04-24T17:35:40.168Z,4.05
2023-04-24T17:41:02.530Z,5.25
2023-04-24T17:46:24.493Z,4.40
2023-04-24T17:51:46.394Z,5.30
2023-04-24T17:57:08.277Z,4.78
2023-04-24T18:02:30.324Z,4.03
2023-04-24T18:07:52.172Z,3.97
2023-04-24T18:13:14.045Z,3.85
2023-04-24T18:18:35.975Z,4.32
2023-04-24T18:23:57.846Z,4.45
2023-04-24T18:29:19.715Z,4.85
2023-04-24T18:34:41.579Z,4.70
2023-04-24T18:40:03.701Z,4.68
2023-04-24T18:45:25.601Z,5.00
2023-04-24T18:50:47.451Z,4.85
2023-04-24T18:56:09.301Z,4.40
2023-04-24T19:01:31.298Z,4.80
2023-04-24T19:06:53.168Z,5.03
2023-04-24T19:12:15.119Z,5.32
2023-04-24T19:17:37.015Z,5.28
2023-04-24T19:22:58.893Z,5.40
2023-04-24T19:28:20.747Z,5.70
2023-04-24T19:33:42.581Z,5.35
2023-04-24T19:39:04.482Z,5.57
2023-04-24T19:44:26.296Z,4.95
2023-04-24T19:49:48.118Z,7.32
2023-04-24T19:55:10.128Z,6.20
2023-04-24T20:00:32.059Z,6.72
2023-04-24T20:05:54.214Z,6.00
2023-04-24T20:11:16.823Z,6.28
2023-04-24T20:16:38.709Z,6.35
2023-04-24T20:22:00.667Z,5.50
2023-04-24T20:27:22.573Z,5.72
2023-04-24T20:32:44.846Z,6.00
2023-04-24T20:38:06.807Z,5.65
2023-04-24T20:43:29.475Z,6.82
2023-04-24T20:48:51.507Z,6.95
2023-04-24T20:54:13.337Z,6.57
2023-04-24T20:59:35.548Z,6.43
2023-04-24T21:04:57.418Z,6.70
2023-04-24T21:10:19.328Z,7.45
2023-04-24T21:15:41.244Z,8.05
2023-04-24T21:21:03.240Z,7.93
2023-04-24T21:26:25.150Z,7.57
2023-04-24T21:31:47.008Z,7.65
2023-04-24T21:37:09.182Z,8.35
2023-04-24T21:42:31.348Z,8.15
2023-04-24T21:47:53.192Z,7.47
2023-04-24T21:53:15.148Z,7.55
2023-04-24T21:58:37.237Z,7.57
2023-04-24T22:03:59.461Z,7.45
2023-04-24T22:09:21.564Z,7.93
2023-04-24T22:14:43.429Z,7.07
2023-04-24T22:20:05.883Z,7.28
2023-04-24T22:25:27.730Z,7.65
2023-04-24T22:30:49.633Z,7.15
2023-04-24T22:36:11.580Z,7.93
2023-04-24T22:41:33.461Z,7.50
2023-04-24T22:46:55.717Z,8.38
2023-04-24T22:52:17.559Z,8.32
2023-04-24T22:57:40.262Z,8.57
2023-04-24T23:03:02.451Z,8.05
2023-04-24T23:08:24.549Z,9.10
2023-04-24T23:13:46.534Z,9.80
2023-04-24T23:19:08.524Z,9.80
2023-04-24T23:24:30.357Z,9.73
2023-04-24T23:29:52.214Z,10.32
2023-04-24T23:35:14.151Z,10.02
2023-04-24T23:40:36.149Z,10.45
2023-04-24T23:45:57.970Z,9.60
2023-04-24T23:51:20.036Z,10.20
2023-04-24T23:56:43.363Z,10.48
